createdAt,value
2023-02-22T00:00:53.358Z,30.60
2023-02-22T00:03:26.709Z,25.80
2023-02-22T00:06:01.966Z,24.70
2023-02-22T00:08:31.405Z,22.70
2023-02-22T00:11:00.449Z,24.50
2023-02-22T00:13:28.513Z,23.70
2023-02-22T00:15:56.607Z,24.70
2023-02-22T00:18:23.765Z,21.30
2023-02-22T00:20:50.763Z,31.30
2023-02-22T00:23:21.257Z,24.70
2023-02-22T00:25:50.126Z,30.70
2023-02-22T00:28:18.508Z,26.30
2023-02-22T00:30:45.585Z,22.10
2023-02-22T00:33:13.886Z,26.80
2023-02-22T00:35:41.233Z,25.00
2023-02-22T00:38:08.055Z,19.90
2023-02-22T00:40:35.131Z,25.40
2023-02-22T00:43:04.529Z,26.50
2023-02-22T00:45:34.992Z,25.30
2023-02-22T00:48:03.584Z,30.30
2023-02-22T00:50:31.945Z,31.10
2023-02-22T00:53:01.046Z,23.90
2023-02-22T00:55:31.589Z,26.90
2023-02-22T00:58:00.792Z,25.20
2023-02-22T01:00:35.882Z,26.60
2023-02-22T01:03:04.390Z,27.50
2023-02-22T01:05:32.534Z,29.20
2023-02-22T01:08:01.083Z,25.80
2023-02-22T01:10:30.498Z,34.00
2023-02-22T01:12:58.078Z,17.40
2023-02-22T01:15:30.114Z,28.40
2023-02-22T01:17:59.111Z,31.90
2023-02-22T01:20:27.503Z,26.40
2023-02-22T01:22:57.030Z,33.90
2023-02-22T01:25:27.740Z,37.60
2023-02-22T01:27:55.748Z,30.40
2023-02-22T01:30:30.224Z,33.20
2023-02-22T01:32:57.366Z,43.50
2023-02-22T01:35:28.832Z,31.70
2023-02-22T01:37:57.441Z,42.40
2023-02-22T01:40:32.088Z,34.30
2023-02-22T01:43:03.059Z,30.00
2023-02-22T01:45:29.597Z,31.20
2023-02-22T01:48:19.186Z,37.80
2023-02-22T01:51:11.623Z,34.10
2023-02-22T01:53:45.915Z,31.80
2023-02-22T01:56:13.577Z,24.00
2023-02-22T01:58:49.822Z,23.80
2023-02-22T02:01:17.864Z,28.00
2023-02-22T02:03:45.042Z,33.90
2023-02-22T02:06:14.052Z,33.70
2023-02-22T02:08:55.749Z,27.50
2023-02-22T02:11:25.185Z,25.60
2023-02-22T02:13:54.573Z,30.50
2023-02-22T02:16:36.247Z,34.30
2023-02-22T02:19:03.716Z,32.00
2023-02-22T02:21:49.228Z,29.60
2023-02-22T02:25:30.230Z,36.30
2023-02-22T02:28:23.708Z,27.40
2023-02-22T02:31:35.280Z,29.20
2023-02-22T02:34:14.445Z,25.60
2023-02-22T02:37:05.378Z,32.50
2023-02-22T02:39:43.254Z,20.70
2023-02-22T02:42:15.035Z,25.50
2023-02-22T02:45:09.348Z,38.40
2023-02-22T02:47:41.942Z,24.30
2023-02-22T02:50:33.423Z,26.30
2023-02-22T02:53:04.525Z,22.50
2023-02-22T02:55:31.310Z,21.00
2023-02-22T02:57:58.817Z,26.00
2023-02-22T03:00:31.001Z,31.00
2023-02-22T03:03:29.234Z,23.40
2023-02-22T03:06:07.895Z,27.70
2023-02-22T03:08:43.541Z,25.70
2023-02-22T03:11:22.199Z,28.60
2023-02-22T03:14:08.475Z,34.50
2023-02-22T03:16:49.589Z,31.20
2023-02-22T03:19:38.617Z,24.10
2023-02-22T03:22:20.610Z,54.60
2023-02-22T03:25:06.513Z,44.20
2023-02-22T03:27:49.043Z,44.10
2023-02-22T03:30:32.823Z,38.60
2023-02-22T03:33:08.477Z,44.60
2023-02-22T03:35:49.523Z,49.70
2023-02-22T03:38:19.107Z,44.30
2023-02-22T03:40:50.369Z,49.60
2023-02-22T03:43:24.258Z,71.50
2023-02-22T03:45:51.189Z,60.40
2023-02-22T03:48:32.509Z,35.40
2023-02-22T03:51:00.369Z,28.80
2023-02-22T03:53:27.089Z,29.30
2023-02-22T03:55:55.096Z,35.10
2023-02-22T03:58:22.581Z,34.90
2023-02-22T04:00:52.423Z,28.20
2023-02-22T04:03:20.952Z,26.20
2023-02-22T04:05:48.051Z,33.60
2023-02-22T04:08:15.424Z,31.10
2023-02-22T04:10:42.460Z,33.50
2023-02-22T04:13:10.075Z,30.90
2023-02-22T04:15:37.208Z,31.10
2023-02-22T04:18:05.062Z,37.00
2023-02-22T04:20:31.722Z,36.80
2023-02-22T04:22:58.275Z,53.20
2023-02-22T04:25:24.821Z,43.60
2023-02-22T04:27:51.537Z,35.90
2023-02-22T04:30:19.005Z,41.70
2023-02-22T04:32:45.887Z,36.50
2023-02-22T04:35:12.562Z,35.30
2023-02-22T04:37:39.377Z,44.10
2023-02-22T04:40:07.666Z,41.30
2023-02-22T04:42:35.826Z,43.30
2023-02-22T04:45:04.237Z,42.90
2023-02-22T04:47:34.699Z,43.80
2023-02-22T04:50:02.021Z,40.70
2023-02-22T04:52:28.635Z,58.10
2023-02-22T04:54:55.170Z,63.10
2023-02-22T04:57:22.297Z,69.40
2023-02-22T04:59:50.444Z,62.20
2023-02-22T05:02:17.892Z,55.40
2023-02-22T05:04:44.938Z,68.30
2023-02-22T05:07:11.656Z,71.20
2023-02-22T05:09:38.293Z,56.90
2023-02-22T05:12:05.222Z,49.80
2023-02-22T05:14:32.302Z,61.50
2023-02-22T05:16:59.521Z,63.90
2023-02-22T05:19:26.134Z,86.10
2023-02-22T05:21:53.109Z,121.80
2023-02-22T05:24:19.624Z,170.40
2023-02-22T05:26:46.275Z,219.30
2023-02-22T05:29:13.804Z,116.70
2023-02-22T05:31:41.307Z,97.30
2023-02-22T05:34:08.432Z,87.40
2023-02-22T05:36:35.181Z,67.80
2023-02-22T05:39:01.800Z,57.50
2023-02-22T05:41:28.565Z,45.60
2023-02-22T05:43:55.217Z,55.00
2023-02-22T05:46:21.738Z,76.80
2023-02-22T05:48:48.290Z,72.90
2023-02-22T05:51:15.109Z,78.00
2023-02-22T05:53:42.020Z,137.50
2023-02-22T05:56:08.747Z,133.70
2023-02-22T05:58:35.333Z,124.50
2023-02-22T06:01:03.345Z,101.50
2023-02-22T06:03:30.079Z,91.90
2023-02-22T06:05:57.390Z,94.00
2023-02-22T06:08:23.955Z,90.80
2023-02-22T06:10:50.441Z,89.90
2023-02-22T06:13:17.141Z,112.80
2023-02-22T06:15:43.737Z,98.90
2023-02-22T06:18:10.431Z,95.80
2023-02-22T06:20:36.984Z,96.20
2023-02-22T06:23:03.489Z,104.00
2023-02-22T06:25:31.221Z,92.10
2023-02-22T06:27:59.738Z,67.70
2023-02-22T06:30:27.784Z,145.90
2023-02-22T06:32:54.430Z,153.50
2023-02-22T06:35:21.430Z,126.60
2023-02-22T06:37:48.042Z,114.90
2023-02-22T06:40:15.148Z,131.50
2023-02-22T06:42:41.774Z,124.80
2023-02-22T06:45:08.978Z,132.90
2023-02-22T06:47:40.738Z,131.80
2023-02-22T06:50:18.428Z,131.50
2023-02-22T06:52:47.046Z,135.00
2023-02-22T06:55:22.456Z,162.60
2023-02-22T06:57:49.312Z,132.90
2023-02-22T07:00:18.318Z,107.90
2023-02-22T07:02:46.044Z,106.70
2023-02-22T07:05:12.807Z,125.80
2023-02-22T07:07:40.034Z,135.90
2023-02-22T07:10:14.613Z,150.40
2023-02-22T07:12:41.132Z,144.90
2023-02-22T07:15:08.008Z,157.40
2023-02-22T07:17:34.808Z,168.00
2023-02-22T07:20:01.435Z,170.80
2023-02-22T07:22:28.144Z,133.10
2023-02-22T07:24:54.714Z,141.80
2023-02-22T07:27:22.054Z,126.10
2023-02-22T07:29:49.224Z,114.90
2023-02-22T07:32:15.817Z,103.10
2023-02-22T07:34:42.616Z,96.20
2023-02-22T07:37:09.164Z,92.60
2023-02-22T07:39:37.300Z,106.80
2023-02-22T07:42:04.362Z,120.40
2023-02-22T07:44:30.949Z,97.00
2023-02-22T07:46:57.514Z,74.40
2023-02-22T07:49:24.056Z,74.20
2023-02-22T07:51:50.747Z,74.70
2023-02-22T07:54:17.344Z,79.20
2023-02-22T07:56:48.443Z,82.10
2023-02-22T07:59:15.898Z,80.20
2023-02-22T08:01:42.568Z,45.90
2023-02-22T08:04:09.303Z,44.90
2023-02-22T08:06:36.122Z,43.00
2023-02-22T08:09:03.022Z,37.30
2023-02-22T08:11:29.771Z,37.80
2023-02-22T08:13:56.405Z,34.40
2023-02-22T08:16:23.036Z,31.10
2023-02-22T08:18:49.654Z,37.10
2023-02-22T08:21:16.924Z,42.00
2023-02-22T08:23:43.946Z,39.60
2023-02-22T08:26:14.992Z,38.50
2023-02-22T08:28:42.558Z,40.10
2023-02-22T08:31:09.316Z,35.90
2023-02-22T08:33:36.247Z,42.20
2023-02-22T08:36:03.369Z,29.50
2023-02-22T08:38:32.023Z,30.80
2023-02-22T08:40:58.692Z,34.50
2023-02-22T08:43:25.961Z,43.90
2023-02-22T08:45:53.567Z,46.20
2023-02-22T08:48:21.173Z,28.40
2023-02-22T08:50:47.855Z,29.40
2023-02-22T08:53:15.990Z,33.40
2023-02-22T08:55:43.329Z,40.10
2023-02-22T08:58:10.415Z,46.90
2023-02-22T09:00:39.460Z,40.90
2023-02-22T09:03:09.678Z,35.80
2023-02-22T09:05:37.091Z,39.50
2023-02-22T09:08:04.291Z,39.70
2023-02-22T09:10:33.825Z,46.10
2023-02-22T09:13:00.784Z,41.20
2023-02-22T09:15:28.373Z,32.80
2023-02-22T09:17:55.509Z,39.50
2023-02-22T09:20:24.702Z,33.90
2023-02-22T09:22:52.598Z,38.50
2023-02-22T09:25:20.348Z,40.00
2023-02-22T09:27:52.710Z,31.00
2023-02-22T09:30:24.313Z,35.90
2023-02-22T09:32:54.199Z,25.80
2023-02-22T09:35:28.618Z,26.80
2023-02-22T09:37:57.975Z,38.20
2023-02-22T09:40:30.575Z,30.80
2023-02-22T09:43:21.407Z,32.40
2023-02-22T09:46:20.761Z,21.80
2023-02-22T09:49:19.780Z,32.00
2023-02-22T09:52:04.315Z,25.80
2023-02-22T09:54:39.441Z,33.20
2023-02-22T09:57:35.381Z,21.10
2023-02-22T10:00:17.440Z,22.80
2023-02-22T10:02:56.737Z,23.70
2023-02-22T10:05:28.913Z,22.30
2023-02-22T10:08:07.951Z,20.40
2023-02-22T10:10:38.673Z,22.60
2023-02-22T10:14:06.077Z,36.20
2023-02-22T10:17:07.999Z,20.10
2023-02-22T10:20:13.007Z,17.60
2023-02-22T10:22:57.064Z,26.80
2023-02-22T10:25:27.792Z,28.60
2023-02-22T10:28:11.718Z,27.00
2023-02-22T10:30:43.854Z,18.30
2023-02-22T10:33:19.675Z,24.60
2023-02-22T10:35:47.452Z,25.40
2023-02-22T10:38:22.829Z,26.90
2023-02-22T10:41:18.378Z,23.20
2023-02-22T10:43:45.512Z,16.60
2023-02-22T10:46:17.795Z,23.60
2023-02-22T10:48:48.245Z,25.50
2023-02-22T10:51:15.106Z,28.60
2023-02-22T10:53:41.649Z,25.00
2023-02-22T10:56:20.779Z,28.30
2023-02-22T10:58:49.133Z,25.00
2023-02-22T11:01:37.692Z,25.20
2023-02-22T11:04:18.181Z,26.70
2023-02-22T11:06:48.290Z,25.60
2023-02-22T11:09:23.734Z,20.20
2023-02-22T11:12:09.607Z,16.20
2023-02-22T11:14:36.451Z,25.80
2023-02-22T11:17:08.116Z,26.50
2023-02-22T11:19:37.606Z,23.50
2023-02-22T11:22:07.374Z,25.80
2023-02-22T11:24:48.406Z,22.70
2023-02-22T11:27:39.303Z,23.10
2023-02-22T11:30:32.519Z,22.40
2023-02-22T11:33:12.081Z,21.60
2023-02-22T11:35:57.610Z,27.10
2023-02-22T11:38:36.292Z,21.30
2023-02-22T11:41:14.787Z,27.30
2023-02-22T11:43:47.204Z,20.20
2023-02-22T11:46:18.483Z,19.90
2023-02-22T11:49:07.772Z,19.60
2023-02-22T11:51:40.625Z,21.30
2023-02-22T11:54:47.153Z,23.20
2023-02-22T11:57:36.776Z,19.00
2023-02-22T12:00:44.867Z,16.60
2023-02-22T12:03:36.483Z,17.50
2023-02-22T12:06:15.084Z,20.90
2023-02-22T12:08:55.299Z,24.20
2023-02-22T12:11:52.802Z,30.60
2023-02-22T12:15:03.295Z,27.40
2023-02-22T12:18:00.001Z,23.40
2023-02-22T12:20:45.328Z,25.10
2023-02-22T12:23:15.153Z,19.40
2023-02-22T12:25:57.922Z,22.40
2023-02-22T12:31:29.205Z,21.10
2023-02-22T12:34:27.606Z,24.10
2023-02-22T12:37:07.337Z,18.10
2023-02-22T12:39:57.356Z,16.30
2023-02-22T12:42:47.206Z,15.70
2023-02-22T12:45:29.977Z,20.60
2023-02-22T12:50:34.672Z,16.80
2023-02-22T12:53:19.339Z,19.60
2023-02-22T12:56:27.349Z,26.30
2023-02-22T12:58:59.949Z,18.70
2023-02-22T13:01:32.511Z,19.50
2023-02-22T13:04:05.745Z,19.10
2023-02-22T13:07:08.285Z,21.00
2023-02-22T13:10:12.195Z,18.90
2023-02-22T13:13:26.255Z,19.70
2023-02-22T13:15:56.829Z,19.60
2023-02-22T13:18:39.207Z,18.80
2023-02-22T13:21:21.076Z,24.60
2023-02-22T13:24:04.062Z,24.50
2023-02-22T13:27:15.564Z,21.60
2023-02-22T13:29:47.937Z,18.90
2023-02-22T13:32:32.693Z,22.00
2023-02-22T13:35:44.586Z,21.60
2023-02-22T13:38:29.080Z,17.80
2023-02-22T13:41:35.179Z,21.90
2023-02-22T13:44:35.736Z,18.60
2023-02-22T13:47:20.100Z,20.60
2023-02-22T13:49:59.310Z,17.80
2023-02-22T13:52:29.330Z,27.10
2023-02-22T13:55:10.224Z,23.00
2023-02-22T13:57:47.879Z,15.60
2023-02-22T14:00:14.465Z,14.70
2023-02-22T14:03:08.679Z,18.80
2023-02-22T14:05:35.605Z,17.10
2023-02-22T14:08:02.295Z,21.30
2023-02-22T14:11:00.287Z,18.30
2023-02-22T14:13:28.980Z,18.90
2023-02-22T14:16:04.522Z,17.70
2023-02-22T14:18:41.902Z,16.40
2023-02-22T14:21:15.712Z,16.40
2023-02-22T14:23:55.958Z,23.90
2023-02-22T14:26:28.807Z,18.80
2023-02-22T14:31:37.659Z,13.20
2023-02-22T14:34:14.796Z,17.20
2023-02-22T14:36:52.195Z,20.80
2023-02-22T14:39:45.399Z,18.60
2023-02-22T14:42:27.440Z,13.90
2023-02-22T14:45:08.809Z,16.00
2023-02-22T14:48:00.428Z,15.60
2023-02-22T14:50:41.465Z,18.00
2023-02-22T14:53:40.199Z,24.70
2023-02-22T14:56:13.856Z,21.00
2023-02-22T14:58:41.555Z,22.10
2023-02-22T15:01:58.329Z,21.20
2023-02-22T15:04:30.593Z,18.40
2023-02-22T15:07:00.632Z,31.00
2023-02-22T15:09:36.735Z,24.20
2023-02-22T15:12:03.350Z,28.00
2023-02-22T15:14:36.977Z,25.40
2023-02-22T15:17:13.616Z,29.60
2023-02-22T15:19:41.317Z,27.70
2023-02-22T15:22:29.556Z,25.10
2023-02-22T15:25:03.249Z,27.00
2023-02-22T15:27:36.241Z,20.80
2023-02-22T15:30:26.003Z,25.30
2023-02-22T15:33:03.558Z,19.40
2023-02-22T15:35:32.891Z,25.30
2023-02-22T15:38:13.752Z,16.90
2023-02-22T15:40:42.578Z,24.60
2023-02-22T15:43:23.721Z,36.30
2023-02-22T15:45:51.626Z,24.60
2023-02-22T15:48:20.342Z,31.90
2023-02-22T15:51:13.184Z,34.30
2023-02-22T15:53:49.128Z,37.40
2023-02-22T15:56:26.397Z,49.00
2023-02-22T15:59:05.574Z,45.40
2023-02-22T16:01:44.142Z,45.30
2023-02-22T16:04:23.610Z,47.60
2023-02-22T16:06:55.025Z,47.00
2023-02-22T16:09:25.428Z,43.10
2023-02-22T16:12:09.686Z,53.70
2023-02-22T16:14:37.006Z,34.30
2023-02-22T16:17:28.129Z,32.90
2023-02-22T16:19:55.153Z,29.60
2023-02-22T16:22:35.503Z,29.20
2023-02-22T16:25:17.278Z,39.00
2023-02-22T16:27:48.810Z,25.00
2023-02-22T16:30:25.494Z,25.70
2023-02-22T16:32:55.732Z,25.00
2023-02-22T16:35:27.893Z,32.30
2023-02-22T16:38:01.581Z,23.20
2023-02-22T16:40:43.892Z,22.70
2023-02-22T16:43:14.333Z,24.60
2023-02-22T16:45:43.601Z,21.60
2023-02-22T16:48:32.218Z,21.70
2023-02-22T16:51:16.738Z,27.90
2023-02-22T16:53:43.993Z,29.20
2023-02-22T16:56:15.689Z,34.30
2023-02-22T16:58:42.753Z,32.10
2023-02-22T17:01:11.854Z,45.10
2023-02-22T17:03:38.832Z,48.50
2023-02-22T17:06:06.198Z,69.20
2023-02-22T17:08:32.813Z,69.00
2023-02-22T17:11:00.142Z,57.60
2023-02-22T17:13:28.601Z,59.50
2023-02-22T17:15:56.798Z,95.00
2023-02-22T17:18:27.804Z,99.60
2023-02-22T17:20:54.597Z,86.00
2023-02-22T17:23:22.562Z,91.40
2023-02-22T17:26:03.834Z,74.30
2023-02-22T17:28:31.557Z,77.90
2023-02-22T17:31:00.630Z,91.90
2023-02-22T17:33:32.253Z,69.00
2023-02-22T17:36:01.219Z,64.80
2023-02-22T17:38:29.541Z,53.80
2023-02-22T17:40:58.329Z,51.60
2023-02-22T17:43:27.204Z,68.00
2023-02-22T17:45:54.107Z,59.40
2023-02-22T17:48:22.907Z,65.30
2023-02-22T17:50:51.437Z,64.10
2023-02-22T17:53:21.191Z,57.60
2023-02-22T17:55:48.406Z,56.40
2023-02-22T17:58:15.617Z,63.40
2023-02-22T18:00:46.356Z,65.00
2023-02-22T18:03:20.804Z,61.10
2023-02-22T18:05:50.251Z,59.70
2023-02-22T18:08:16.929Z,79.80
2023-02-22T18:10:44.442Z,88.30
2023-02-22T18:13:17.287Z,91.90
2023-02-22T18:15:45.668Z,81.80
2023-02-22T18:18:12.849Z,77.40
2023-02-22T18:20:50.728Z,83.30
2023-02-22T18:23:21.656Z,67.00
2023-02-22T18:26:07.568Z,79.40
2023-02-22T18:28:35.594Z,76.90
2023-02-22T18:31:13.648Z,76.00
2023-02-22T18:33:42.625Z,79.70
2023-02-22T18:36:12.772Z,86.70
2023-02-22T18:38:44.072Z,86.00
2023-02-22T18:41:14.091Z,75.90
2023-02-22T18:43:41.353Z,78.70
2023-02-22T18:46:10.936Z,124.70
2023-02-22T18:48:38.391Z,117.90
2023-02-22T18:51:09.233Z,85.20
2023-02-22T18:53:37.360Z,62.50
2023-02-22T18:56:07.090Z,59.60
2023-02-22T18:58:35.373Z,73.20
2023-02-22T19:01:03.159Z,91.50
2023-02-22T19:03:31.731Z,72.90
2023-02-22T19:06:03.252Z,75.20
2023-02-22T19:08:31.864Z,71.60
2023-02-22T19:11:08.561Z,65.00
2023-02-22T19:13:36.488Z,64.50
2023-02-22T19:16:06.504Z,61.10
2023-02-22T19:18:33.249Z,61.40
2023-02-22T19:21:03.213Z,53.80
2023-02-22T19:23:34.288Z,54.00
2023-02-22T19:26:03.729Z,60.30
2023-02-22T19:28:33.452Z,64.90
2023-02-22T19:31:30.508Z,85.90
2023-02-22T19:34:08.231Z,62.60
2023-02-22T19:36:38.513Z,54.30
2023-02-22T19:39:05.252Z,61.70
2023-02-22T19:41:31.903Z,53.30
2023-02-22T19:43:58.957Z,55.90
2023-02-22T19:46:25.701Z,49.60
2023-02-22T19:48:54.738Z,49.70
2023-02-22T19:51:25.635Z,49.50
2023-02-22T19:53:53.719Z,51.90
2023-02-22T19:56:26.398Z,49.50
2023-02-22T19:58:55.469Z,47.10
2023-02-22T20:01:32.347Z,51.40
2023-02-22T20:04:03.025Z,50.50
2023-02-22T20:06:39.432Z,42.40
2023-02-22T20:09:08.779Z,42.50
2023-02-22T20:11:35.514Z,48.80
2023-02-22T20:14:05.671Z,44.40
2023-02-22T20:16:34.150Z,53.20
2023-02-22T20:19:00.836Z,42.90
2023-02-22T20:21:31.207Z,46.20
2023-02-22T20:24:04.561Z,40.80
2023-02-22T20:26:33.622Z,39.70
2023-02-22T20:29:03.281Z,45.50
2023-02-22T20:31:30.793Z,44.90
2023-02-22T20:34:02.144Z,55.90
2023-02-22T20:36:30.199Z,61.70
2023-02-22T20:38:58.987Z,39.30
2023-02-22T20:41:32.076Z,46.30
2023-02-22T20:44:00.417Z,37.80
2023-02-22T20:46:30.869Z,50.60
2023-02-22T20:49:00.160Z,57.50
2023-02-22T20:51:28.104Z,50.90
2023-02-22T20:53:59.189Z,46.80
2023-02-22T20:56:28.792Z,39.60
2023-02-22T20:59:01.429Z,48.20
2023-02-22T21:01:28.785Z,40.60
2023-02-22T21:04:03.119Z,39.10
2023-02-22T21:06:30.358Z,46.00
2023-02-22T21:08:59.529Z,43.60
2023-02-22T21:11:30.698Z,63.50
2023-02-22T21:13:57.510Z,39.30
2023-02-22T21:16:31.374Z,42.40
2023-02-22T21:19:01.790Z,42.30
2023-02-22T21:21:29.304Z,42.40
2023-02-22T21:24:00.875Z,39.50
2023-02-22T21:26:30.975Z,41.50
2023-02-22T21:29:04.050Z,47.90
2023-02-22T21:31:32.309Z,41.50
2023-02-22T21:33:59.759Z,41.50
2023-02-22T21:36:27.680Z,36.10
2023-02-22T21:38:57.600Z,39.00
2023-02-22T21:41:28.231Z,39.50
2023-02-22T21:43:56.680Z,40.20
2023-02-22T21:46:25.460Z,42.40
2023-02-22T21:48:52.167Z,38.30
2023-02-22T21:51:22.693Z,41.60
2023-02-22T21:53:52.816Z,37.30
2023-02-22T21:56:29.495Z,40.90
2023-02-22T21:59:06.787Z,40.90
2023-02-22T22:01:49.258Z,43.80
2023-02-22T22:04:19.512Z,38.90
2023-02-22T22:06:51.362Z,46.40
2023-02-22T22:09:19.275Z,44.80
2023-02-22T22:11:53.848Z,37.50
2023-02-22T22:14:23.665Z,38.00
2023-02-22T22:16:55.246Z,35.30
2023-02-22T22:19:22.225Z,40.20
2023-02-22T22:21:52.729Z,45.70
2023-02-22T22:24:21.793Z,38.80
2023-02-22T22:26:50.595Z,40.40
2023-02-22T22:29:18.018Z,35.20
2023-02-22T22:31:45.475Z,42.60
2023-02-22T22:34:12.299Z,33.70
2023-02-22T22:36:38.967Z,41.30
2023-02-22T22:39:12.339Z,47.50
2023-02-22T22:41:41.797Z,51.80
2023-02-22T22:44:09.302Z,38.90
2023-02-22T22:46:39.081Z,48.10
2023-02-22T22:49:12.638Z,40.00
2023-02-22T22:51:46.697Z,39.40
2023-02-22T22:54:13.270Z,37.50
2023-02-22T22:56:39.808Z,44.10
2023-02-22T22:59:08.916Z,33.20
2023-02-22T23:01:39.989Z,42.10
2023-02-22T23:04:10.955Z,42.60
2023-02-22T23:06:41.336Z,41.50
2023-02-22T23:09:21.067Z,43.60
2023-02-22T23:11:57.080Z,37.90
2023-02-22T23:14:30.407Z,36.10
2023-02-22T23:17:02.521Z,39.80
2023-02-22T23:19:30.685Z,37.10
2023-02-22T23:21:58.477Z,40.70
2023-02-22T23:24:26.826Z,35.80
2023-02-22T23:26:59.302Z,41.20
2023-02-22T23:29:28.073Z,31.50
2023-02-22T23:31:55.070Z,30.20
2023-02-22T23:34:22.696Z,35.00
2023-02-22T23:36:53.480Z,35.30
2023-02-22T23:39:22.354Z,32.70
2023-02-22T23:41:54.494Z,33.10
2023-02-22T23:44:21.552Z,29.20
2023-02-22T23:46:54.333Z,29.60
2023-02-22T23:49:37.249Z,29.30
2023-02-22T23:52:05.830Z,31.60
2023-02-22T23:54:35.761Z,36.20
2023-02-22T23:57:03.554Z,35.20
2023-02-22T23:59:30.720Z,35.00
